sensor_id;sensor_type;location;lat;lon;timestamp;pressure;altitude;pressure_sealevel;temperature;humidity
76137;BME280;68622;53.128;17.966;2024-01-10T00:00:01;103257.42;;;-3.93;63.59
76137;BME280;68622;53.128;17.966;2024-01-10T00:02:30;103256.59;;;-3.92;63.88
76137;BME280;68622;53.128;17.966;2024-01-10T00:04:56;103248.82;;;-3.90;63.95
76137;BME280;68622;53.128;17.966;2024-01-10T00:07:22;103247.02;;;-3.85;63.67
76137;BME280;68622;53.128;17.966;2024-01-10T00:09:48;103241.67;;;-3.78;63.35
76137;BME280;68622;53.128;17.966;2024-01-10T00:12:14;103238.83;;;-3.74;63.43
76137;BME280;68622;53.128;17.966;2024-01-10T00:14:40;103235.42;;;-3.74;63.54
76137;BME280;68622;53.128;17.966;2024-01-10T00:17:05;103230.85;;;-3.74;63.26
76137;BME280;68622;53.128;17.966;2024-01-10T00:19:31;103227.91;;;-3.81;64.63
76137;BME280;68622;53.128;17.966;2024-01-10T00:21:57;103227.10;;;-3.76;64.74
76137;BME280;68622;53.128;17.966;2024-01-10T00:24:24;103222.33;;;-3.79;65.51
76137;BME280;68622;53.128;17.966;2024-01-10T00:26:49;103214.89;;;-3.78;65.48
76137;BME280;68622;53.128;17.966;2024-01-10T00:29:15;103208.77;;;-3.77;65.70
76137;BME280;68622;53.128;17.966;2024-01-10T00:31:41;103203.40;;;-3.73;65.74
76137;BME280;68622;53.128;17.966;2024-01-10T00:34:07;103198.86;;;-3.70;65.44
76137;BME280;68622;53.128;17.966;2024-01-10T00:36:33;103198.92;;;-3.64;64.72
76137;BME280;68622;53.128;17.966;2024-01-10T00:38:59;103193.70;;;-3.59;64.62
76137;BME280;68622;53.128;17.966;2024-01-10T00:41:25;103193.55;;;-3.58;65.60
76137;BME280;68622;53.128;17.966;2024-01-10T00:43:51;103189.13;;;-3.59;66.08
76137;BME280;68622;53.128;17.966;2024-01-10T00:46:17;103188.65;;;-3.57;66.49
76137;BME280;68622;53.128;17.966;2024-01-10T00:48:43;103184.45;;;-3.52;65.90
76137;BME280;68622;53.128;17.966;2024-01-10T00:51:09;103186.04;;;-3.47;66.19
76137;BME280;68622;53.128;17.966;2024-01-10T00:53:35;103188.77;;;-3.44;66.59
76137;BME280;68622;53.128;17.966;2024-01-10T00:56:01;103186.79;;;-3.39;66.28
76137;BME280;68622;53.128;17.966;2024-01-10T00:58:27;103187.15;;;-3.36;67.10
76137;BME280;68622;53.128;17.966;2024-01-10T01:00:53;103184.16;;;-3.29;67.04
76137;BME280;68622;53.128;17.966;2024-01-10T01:03:19;103188.43;;;-3.26;66.58
76137;BME280;68622;53.128;17.966;2024-01-10T01:05:45;103183.36;;;-3.24;66.70
76137;BME280;68622;53.128;17.966;2024-01-10T01:08:11;103189.65;;;-3.23;67.94
76137;BME280;68622;53.128;17.966;2024-01-10T01:10:37;103194.09;;;-3.20;67.83
76137;BME280;68622;53.128;17.966;2024-01-10T01:13:03;103192.23;;;-3.17;67.30
76137;BME280;68622;53.128;17.966;2024-01-10T01:15:29;103193.61;;;-3.16;68.16
76137;BME280;68622;53.128;17.966;2024-01-10T01:17:54;103191.77;;;-3.14;68.32
76137;BME280;68622;53.128;17.966;2024-01-10T01:20:20;103195.02;;;-3.11;67.84
76137;BME280;68622;53.128;17.966;2024-01-10T01:22:46;103195.20;;;-3.08;68.12
76137;BME280;68622;53.128;17.966;2024-01-10T01:25:12;103196.61;;;-3.04;67.88
76137;BME280;68622;53.128;17.966;2024-01-10T01:27:38;103191.70;;;-3.02;68.34
76137;BME280;68622;53.128;17.966;2024-01-10T01:30:05;103187.77;;;-3.04;68.79
76137;BME280;68622;53.128;17.966;2024-01-10T01:32:31;103185.60;;;-2.98;68.61
76137;BME280;68622;53.128;17.966;2024-01-10T01:34:57;103183.58;;;-2.97;68.57
76137;BME280;68622;53.128;17.966;2024-01-10T01:37:22;103178.67;;;-2.94;68.24
76137;BME280;68622;53.128;17.966;2024-01-10T01:39:48;103175.52;;;-2.85;68.03
76137;BME280;68622;53.128;17.966;2024-01-10T01:42:15;103169.79;;;-2.77;68.50
76137;BME280;68622;53.128;17.966;2024-01-10T01:44:41;103164.91;;;-2.71;68.07
76137;BME280;68622;53.128;17.966;2024-01-10T01:47:07;103167.65;;;-2.66;67.39
76137;BME280;68622;53.128;17.966;2024-01-10T01:49:33;103163.08;;;-2.65;67.37
76137;BME280;68622;53.128;17.966;2024-01-10T01:51:59;103163.94;;;-2.63;67.79
76137;BME280;68622;53.128;17.966;2024-01-10T01:54:26;103164.45;;;-2.63;67.50
76137;BME280;68622;53.128;17.966;2024-01-10T01:56:52;103161.23;;;-2.61;67.47
76137;BME280;68622;53.128;17.966;2024-01-10T01:59:19;103162.95;;;-2.57;67.37
76137;BME280;68622;53.128;17.966;2024-01-10T02:01:45;103166.50;;;-2.59;67.33
76137;BME280;68622;53.128;17.966;2024-01-10T02:04:11;103163.27;;;-2.62;67.43
76137;BME280;68622;53.128;17.966;2024-01-10T02:06:37;103158.52;;;-2.61;68.07
76137;BME280;68622;53.128;17.966;2024-01-10T02:09:04;103156.10;;;-2.66;68.87
76137;BME280;68622;53.128;17.966;2024-01-10T02:11:30;103151.87;;;-2.64;69.03
76137;BME280;68622;53.128;17.966;2024-01-10T02:13:57;103149.33;;;-2.63;68.87
76137;BME280;68622;53.128;17.966;2024-01-10T02:16:23;103151.04;;;-2.62;69.29
76137;BME280;68622;53.128;17.966;2024-01-10T02:18:50;103144.09;;;-2.60;69.24
76137;BME280;68622;53.128;17.966;2024-01-10T02:21:20;103140.88;;;-2.54;68.67
76137;BME280;68622;53.128;17.966;2024-01-10T02:23:48;103141.25;;;-2.47;67.99
76137;BME280;68622;53.128;17.966;2024-01-10T02:26:15;103139.89;;;-2.49;68.44
76137;BME280;68622;53.128;17.966;2024-01-10T02:28:41;103137.97;;;-2.58;69.41
76137;BME280;68622;53.128;17.966;2024-01-10T02:31:07;103139.02;;;-2.51;68.97
76137;BME280;68622;53.128;17.966;2024-01-10T02:33:33;103136.16;;;-2.46;68.62
76137;BME280;68622;53.128;17.966;2024-01-10T02:35:58;103134.83;;;-2.40;68.32
76137;BME280;68622;53.128;17.966;2024-01-10T02:38:24;103133.52;;;-2.33;68.25
76137;BME280;68622;53.128;17.966;2024-01-10T02:40:50;103134.21;;;-2.23;67.90
76137;BME280;68622;53.128;17.966;2024-01-10T02:43:16;103134.22;;;-2.22;68.26
76137;BME280;68622;53.128;17.966;2024-01-10T02:45:42;103137.98;;;-2.20;67.97
76137;BME280;68622;53.128;17.966;2024-01-10T02:48:08;103141.36;;;-2.22;68.93
76137;BME280;68622;53.128;17.966;2024-01-10T02:50:34;103138.98;;;-2.21;68.68
76137;BME280;68622;53.128;17.966;2024-01-10T02:53:00;103141.04;;;-2.20;68.58
76137;BME280;68622;53.128;17.966;2024-01-10T02:55:25;103143.59;;;-2.19;68.62
76137;BME280;68622;53.128;17.966;2024-01-10T02:57:51;103143.39;;;-2.24;69.31
76137;BME280;68622;53.128;17.966;2024-01-10T03:00:17;103143.05;;;-2.23;69.11
76137;BME280;68622;53.128;17.966;2024-01-10T03:02:43;103145.59;;;-2.25;69.49
76137;BME280;68622;53.128;17.966;2024-01-10T03:05:09;103144.74;;;-2.28;70.07
76137;BME280;68622;53.128;17.966;2024-01-10T03:07:35;103144.57;;;-2.29;69.74
76137;BME280;68622;53.128;17.966;2024-01-10T03:10:01;103144.56;;;-2.28;69.59
76137;BME280;68622;53.128;17.966;2024-01-10T03:12:27;103137.60;;;-2.28;69.88
76137;BME280;68622;53.128;17.966;2024-01-10T03:14:53;103135.39;;;-2.28;69.94
76137;BME280;68622;53.128;17.966;2024-01-10T03:17:19;103134.71;;;-2.29;70.43
76137;BME280;68622;53.128;17.966;2024-01-10T03:19:45;103133.01;;;-2.30;70.29
76137;BME280;68622;53.128;17.966;2024-01-10T03:22:11;103129.60;;;-2.32;70.74
76137;BME280;68622;53.128;17.966;2024-01-10T03:24:37;103134.20;;;-2.27;70.40
76137;BME280;68622;53.128;17.966;2024-01-10T03:27:04;103131.31;;;-2.25;70.37
76137;BME280;68622;53.128;17.966;2024-01-10T03:29:30;103131.31;;;-2.25;70.46
76137;BME280;68622;53.128;17.966;2024-01-10T03:31:56;103128.61;;;-2.23;70.07
76137;BME280;68622;53.128;17.966;2024-01-10T03:34:22;103121.64;;;-2.25;70.53
76137;BME280;68622;53.128;17.966;2024-01-10T03:36:48;103121.95;;;-2.32;71.29
76137;BME280;68622;53.128;17.966;2024-01-10T03:39:14;103120.27;;;-2.26;70.64
76137;BME280;68622;53.128;17.966;2024-01-10T03:41:40;103119.92;;;-2.24;70.37
76137;BME280;68622;53.128;17.966;2024-01-10T03:44:06;103114.83;;;-2.23;69.76
76137;BME280;68622;53.128;17.966;2024-01-10T03:46:31;103111.92;;;-2.30;70.10
76137;BME280;68622;53.128;17.966;2024-01-10T03:48:57;103109.52;;;-2.38;69.91
76137;BME280;68622;53.128;17.966;2024-01-10T03:51:23;103107.77;;;-2.48;70.06
76137;BME280;68622;53.128;17.966;2024-01-10T03:53:49;103097.65;;;-2.68;70.21
76137;BME280;68622;53.128;17.966;2024-01-10T03:56:16;103092.89;;;-2.71;70.77
76137;BME280;68622;53.128;17.966;2024-01-10T03:58:42;103095.60;;;-2.70;70.59
76137;BME280;68622;53.128;17.966;2024-01-10T04:01:08;103093.64;;;-2.88;71.35
76137;BME280;68622;53.128;17.966;2024-01-10T04:03:34;103097.58;;;-2.83;71.30
76137;BME280;68622;53.128;17.966;2024-01-10T04:06:01;103094.73;;;-2.78;70.82
76137;BME280;68622;53.128;17.966;2024-01-10T04:08:28;103096.59;;;-2.77;70.35
76137;BME280;68622;53.128;17.966;2024-01-10T04:10:54;103095.41;;;-2.75;70.68
76137;BME280;68622;53.128;17.966;2024-01-10T04:13:20;103097.63;;;-2.73;70.69
76137;BME280;68622;53.128;17.966;2024-01-10T04:15:46;103101.22;;;-2.69;70.41
76137;BME280;68622;53.128;17.966;2024-01-10T04:18:12;103103.60;;;-2.68;70.27
76137;BME280;68622;53.128;17.966;2024-01-10T04:20:38;103104.96;;;-2.68;70.58
76137;BME280;68622;53.128;17.966;2024-01-10T04:23:04;103098.63;;;-2.77;71.08
76137;BME280;68622;53.128;17.966;2024-01-10T04:25:30;103095.52;;;-2.85;71.58
76137;BME280;68622;53.128;17.966;2024-01-10T04:27:56;103094.04;;;-2.78;71.20
76137;BME280;68622;53.128;17.966;2024-01-10T04:30:23;103086.88;;;-2.84;71.74
76137;BME280;68622;53.128;17.966;2024-01-10T04:32:49;103081.75;;;-2.89;71.95
76137;BME280;68622;53.128;17.966;2024-01-10T04:35:15;103080.62;;;-2.79;71.38
76137;BME280;68622;53.128;17.966;2024-01-10T04:37:41;103081.65;;;-2.75;71.09
76137;BME280;68622;53.128;17.966;2024-01-10T04:40:07;103075.73;;;-2.72;71.00
76137;BME280;68622;53.128;17.966;2024-01-10T04:42:33;103077.08;;;-2.74;71.52
76137;BME280;68622;53.128;17.966;2024-01-10T04:44:59;103075.39;;;-2.72;71.02
76137;BME280;68622;53.128;17.966;2024-01-10T04:47:25;103082.68;;;-2.73;71.24
76137;BME280;68622;53.128;17.966;2024-01-10T04:49:51;103086.77;;;-2.69;70.92
76137;BME280;68622;53.128;17.966;2024-01-10T04:52:17;103080.67;;;-2.67;70.68
76137;BME280;68622;53.128;17.966;2024-01-10T04:54:42;103075.06;;;-2.68;70.86
76137;BME280;68622;53.128;17.966;2024-01-10T04:57:08;103070.14;;;-2.64;71.05
76137;BME280;68622;53.128;17.966;2024-01-10T04:59:34;103067.96;;;-2.63;71.35
76137;BME280;68622;53.128;17.966;2024-01-10T05:02:00;103067.96;;;-2.61;70.79
76137;BME280;68622;53.128;17.966;2024-01-10T05:04:26;103068.48;;;-2.56;70.79
76137;BME280;68622;53.128;17.966;2024-01-10T05:06:52;103071.05;;;-2.54;71.17
76137;BME280;68622;53.128;17.966;2024-01-10T05:09:18;103071.40;;;-2.52;70.96
76137;BME280;68622;53.128;17.966;2024-01-10T05:11:44;103070.20;;;-2.51;70.93
76137;BME280;68622;53.128;17.966;2024-01-10T05:14:14;103068.52;;;-2.52;71.31
76137;BME280;68622;53.128;17.966;2024-01-10T05:16:40;103071.05;;;-2.49;71.34
76137;BME280;68622;53.128;17.966;2024-01-10T05:19:05;103075.66;;;-2.47;71.09
76137;BME280;68622;53.128;17.966;2024-01-10T05:21:32;103078.39;;;-2.46;70.95
76137;BME280;68622;53.128;17.966;2024-01-10T05:23:58;103071.09;;;-2.45;71.19
76137;BME280;68622;53.128;17.966;2024-01-10T05:26:24;103073.29;;;-2.46;71.25
76137;BME280;68622;53.128;17.966;2024-01-10T05:28:50;103078.56;;;-2.43;71.12
76137;BME280;68622;53.128;17.966;2024-01-10T05:31:16;103079.08;;;-2.42;71.39
76137;BME280;68622;53.128;17.966;2024-01-10T05:33:43;103072.81;;;-2.35;70.89
76137;BME280;68622;53.128;17.966;2024-01-10T05:36:09;103070.44;;;-2.32;71.47
76137;BME280;68622;53.128;17.966;2024-01-10T05:38:37;103071.27;;;-2.33;71.64
76137;BME280;68622;53.128;17.966;2024-01-10T05:41:03;103069.26;;;-2.30;71.57
76137;BME280;68622;53.128;17.966;2024-01-10T05:43:29;103074.02;;;-2.29;71.82
76137;BME280;68622;53.128;17.966;2024-01-10T05:45:55;103071.14;;;-2.31;71.91
76137;BME280;68622;53.128;17.966;2024-01-10T05:48:21;103064.34;;;-2.25;71.93
76137;BME280;68622;53.128;17.966;2024-01-10T05:50:47;103062.30;;;-2.25;71.87
76137;BME280;68622;53.128;17.966;2024-01-10T05:53:13;103058.73;;;-2.23;71.98
76137;BME280;68622;53.128;17.966;2024-01-10T05:55:45;103058.23;;;-2.20;71.82
76137;BME280;68622;53.128;17.966;2024-01-10T05:58:11;103061.30;;;-2.17;72.07
76137;BME280;68622;53.128;17.966;2024-01-10T06:00:37;103062.00;;;-2.13;71.91
76137;BME280;68622;53.128;17.966;2024-01-10T06:03:04;103064.39;;;-2.11;71.91
76137;BME280;68622;53.128;17.966;2024-01-10T06:05:30;103065.57;;;-2.13;72.13
76137;BME280;68622;53.128;17.966;2024-01-10T06:07:59;103064.90;;;-2.08;72.20
76137;BME280;68622;53.128;17.966;2024-01-10T06:10:25;103065.07;;;-2.06;72.04
76137;BME280;68622;53.128;17.966;2024-01-10T06:12:51;103063.88;;;-2.05;71.91
76137;BME280;68622;53.128;17.966;2024-01-10T06:15:17;103064.73;;;-2.04;71.67
76137;BME280;68622;53.128;17.966;2024-01-10T06:17:43;103067.11;;;-2.05;71.64
76137;BME280;68622;53.128;17.966;2024-01-10T06:20:09;103062.88;;;-2.01;71.42
76137;BME280;68622;53.128;17.966;2024-01-10T06:22:35;103066.95;;;-1.98;71.62
76137;BME280;68622;53.128;17.966;2024-01-10T06:25:01;103065.59;;;-2.04;72.33
76137;BME280;68622;53.128;17.966;2024-01-10T06:27:28;103064.23;;;-1.98;71.91
76137;BME280;68622;53.128;17.966;2024-01-10T06:29:54;103066.29;;;-1.95;71.79
76137;BME280;68622;53.128;17.966;2024-01-10T06:32:24;103062.73;;;-1.94;71.63
76137;BME280;68622;53.128;17.966;2024-01-10T06:34:51;103065.27;;;-1.93;71.83
76137;BME280;68622;53.128;17.966;2024-01-10T06:37:19;103068.50;;;-1.93;71.57
76137;BME280;68622;53.128;17.966;2024-01-10T06:39:46;103069.84;;;-1.91;71.61
76137;BME280;68622;53.128;17.966;2024-01-10T06:42:12;103065.44;;;-1.89;71.44
76137;BME280;68622;53.128;17.966;2024-01-10T06:44:38;103062.56;;;-1.85;71.78
76137;BME280;68622;53.128;17.966;2024-01-10T06:47:05;103061.35;;;-1.83;71.75
76137;BME280;68622;53.128;17.966;2024-01-10T06:49:31;103056.61;;;-1.85;72.12
76137;BME280;68622;53.128;17.966;2024-01-10T06:51:58;103060.34;;;-1.83;72.06
76137;BME280;68622;53.128;17.966;2024-01-10T06:54:27;103059.48;;;-1.83;71.91
76137;BME280;68622;53.128;17.966;2024-01-10T06:56:52;103058.63;;;-1.82;72.24
76137;BME280;68622;53.128;17.966;2024-01-10T06:59:18;103057.45;;;-1.84;72.42
76137;BME280;68622;53.128;17.966;2024-01-10T07:01:51;103055.75;;;-1.84;72.73
76137;BME280;68622;53.128;17.966;2024-01-10T07:04:18;103056.08;;;-1.82;72.05
76137;BME280;68622;53.128;17.966;2024-01-10T07:06:44;103051.67;;;-1.82;72.45
76137;BME280;68622;53.128;17.966;2024-01-10T07:09:10;103060.35;;;-1.78;72.26
76137;BME280;68622;53.128;17.966;2024-01-10T07:11:37;103061.37;;;-1.79;72.49
76137;BME280;68622;53.128;17.966;2024-01-10T07:14:03;103060.19;;;-1.76;72.60
76137;BME280;68622;53.128;17.966;2024-01-10T07:16:29;103058.81;;;-1.72;72.42
76137;BME280;68622;53.128;17.966;2024-01-10T07:18:59;103054.39;;;-1.78;72.92
76137;BME280;68622;53.128;17.966;2024-01-10T07:21:26;103056.95;;;-1.70;72.65
76137;BME280;68622;53.128;17.966;2024-01-10T07:23:51;103055.25;;;-1.67;72.47
76137;BME280;68622;53.128;17.966;2024-01-10T07:26:17;103058.47;;;-1.64;72.35
76137;BME280;68622;53.128;17.966;2024-01-10T07:28:43;103054.58;;;-1.62;71.82
76137;BME280;68622;53.128;17.966;2024-01-10T07:31:11;103050.14;;;-1.62;72.26
76137;BME280;68622;53.128;17.966;2024-01-10T07:33:37;103048.61;;;-1.59;72.08
76137;BME280;68622;53.128;17.966;2024-01-10T07:36:03;103052.19;;;-1.60;72.42
76137;BME280;68622;53.128;17.966;2024-01-10T07:38:30;103055.24;;;-1.60;72.15
76137;BME280;68622;53.128;17.966;2024-01-10T07:40:56;103055.77;;;-1.54;72.30
76137;BME280;68622;53.128;17.966;2024-01-10T07:43:22;103052.18;;;-1.52;72.31
76137;BME280;68622;53.128;17.966;2024-01-10T07:45:48;103054.21;;;-1.49;72.17
76137;BME280;68622;53.128;17.966;2024-01-10T07:48:14;103055.07;;;-1.46;72.33
76137;BME280;68622;53.128;17.966;2024-01-10T07:50:40;103058.81;;;-1.43;72.07
76137;BME280;68622;53.128;17.966;2024-01-10T07:53:05;103061.88;;;-1.39;71.76
76137;BME280;68622;53.128;17.966;2024-01-10T07:55:33;103059.84;;;-1.36;71.94
76137;BME280;68622;53.128;17.966;2024-01-10T07:57:59;103060.66;;;-1.32;71.94
76137;BME280;68622;53.128;17.966;2024-01-10T08:00:25;103062.04;;;-1.28;71.79
76137;BME280;68622;53.128;17.966;2024-01-10T08:02:51;103066.45;;;-1.25;71.78
76137;BME280;68622;53.128;17.966;2024-01-10T08:05:17;103068.84;;;-1.23;71.58
76137;BME280;68622;53.128;17.966;2024-01-10T08:07:43;103068.83;;;-1.21;71.37
76137;BME280;68622;53.128;17.966;2024-01-10T08:10:10;103067.13;;;-1.22;70.97
76137;BME280;68622;53.128;17.966;2024-01-10T08:12:37;103060.32;;;-1.20;71.27
76137;BME280;68622;53.128;17.966;2024-01-10T08:15:07;103062.52;;;-1.16;71.02
76137;BME280;68622;53.128;17.966;2024-01-10T08:17:33;103062.34;;;-1.17;71.20
76137;BME280;68622;53.128;17.966;2024-01-10T08:20:00;103063.54;;;-1.13;70.89
76137;BME280;68622;53.128;17.966;2024-01-10T08:22:26;103066.41;;;-1.11;70.89
76137;BME280;68622;53.128;17.966;2024-01-10T08:24:52;103069.66;;;-1.07;70.70
76137;BME280;68622;53.128;17.966;2024-01-10T08:27:18;103076.98;;;-1.07;70.74
76137;BME280;68622;53.128;17.966;2024-01-10T08:29:44;103076.64;;;-1.04;70.65
76137;BME280;68622;53.128;17.966;2024-01-10T08:32:11;103073.04;;;-0.98;70.41
76137;BME280;68622;53.128;17.966;2024-01-10T08:34:37;103076.79;;;-0.94;70.33
76137;BME280;68622;53.128;17.966;2024-01-10T08:37:03;103080.36;;;-0.95;70.22
76137;BME280;68622;53.128;17.966;2024-01-10T08:39:29;103080.55;;;-0.94;70.21
76137;BME280;68622;53.128;17.966;2024-01-10T08:41:57;103083.08;;;-0.93;70.35
76137;BME280;68622;53.128;17.966;2024-01-10T08:44:23;103080.02;;;-0.92;70.33
76137;BME280;68622;53.128;17.966;2024-01-10T08:46:49;103080.86;;;-0.93;70.17
76137;BME280;68622;53.128;17.966;2024-01-10T08:49:18;103080.68;;;-0.88;70.28
76137;BME280;68622;53.128;17.966;2024-01-10T08:51:44;103085.45;;;-0.88;70.62
76137;BME280;68622;53.128;17.966;2024-01-10T08:54:12;103083.40;;;-0.88;70.49
76137;BME280;68622;53.128;17.966;2024-01-10T08:56:43;103088.67;;;-0.83;70.47
76137;BME280;68622;53.128;17.966;2024-01-10T08:59:11;103095.48;;;-0.84;70.46
76137;BME280;68622;53.128;17.966;2024-01-10T09:01:38;103098.39;;;-0.80;70.43
76137;BME280;68622;53.128;17.966;2024-01-10T09:04:07;103095.98;;;-0.76;70.51
76137;BME280;68622;53.128;17.966;2024-01-10T09:06:33;103096.48;;;-0.73;70.34
76137;BME280;68622;53.128;17.966;2024-01-10T09:08:59;103092.57;;;-0.73;70.34
76137;BME280;68622;53.128;17.966;2024-01-10T09:11:25;103093.06;;;-0.67;70.19
76137;BME280;68622;53.128;17.966;2024-01-10T09:13:51;103090.15;;;-0.65;70.13
76137;BME280;68622;53.128;17.966;2024-01-10T09:16:17;103084.02;;;-0.64;70.23
76137;BME280;68622;53.128;17.966;2024-01-10T09:18:44;103088.09;;;-0.58;70.08
76137;BME280;68622;53.128;17.966;2024-01-10T09:21:10;103083.48;;;-0.61;70.04
76137;BME280;68622;53.128;17.966;2024-01-10T09:23:36;103080.08;;;-0.58;70.14
76137;BME280;68622;53.128;17.966;2024-01-10T09:26:02;103079.71;;;-0.54;69.93
76137;BME280;68622;53.128;17.966;2024-01-10T09:28:29;103065.05;;;-0.51;69.99
76137;BME280;68622;53.128;17.966;2024-01-10T09:30:55;103062.46;;;-0.47;69.92
76137;BME280;68622;53.128;17.966;2024-01-10T09:33:20;103057.05;;;-0.54;70.66
76137;BME280;68622;53.128;17.966;2024-01-10T09:35:48;103058.70;;;-0.43;70.51
76137;BME280;68622;53.128;17.966;2024-01-10T09:38:15;103057.81;;;-0.36;70.24
76137;BME280;68622;53.128;17.966;2024-01-10T09:40:42;103052.32;;;-0.29;70.03
76137;BME280;68622;53.128;17.966;2024-01-10T09:43:09;103043.60;;;-0.26;69.97
76137;BME280;68622;53.128;17.966;2024-01-10T09:45:35;103039.77;;;-0.16;69.69
76137;BME280;68622;53.128;17.966;2024-01-10T09:48:03;103034.50;;;-0.16;69.47
76137;BME280;68622;53.128;17.966;2024-01-10T09:50:29;103036.70;;;-0.12;69.30
76137;BME280;68622;53.128;17.966;2024-01-10T09:53:07;103032.89;;;-0.05;69.56
76137;BME280;68622;53.128;17.966;2024-01-10T09:55:35;103028.79;;;-0.03;69.24
76137;BME280;68622;53.128;17.966;2024-01-10T09:58:04;103024.61;;;-0.18;69.64
76137;BME280;68622;53.128;17.966;2024-01-10T10:00:33;103017.05;;;-0.09;69.62
76137;BME280;68622;53.128;17.966;2024-01-10T10:03:02;103017.20;;;-0.06;69.55
76137;BME280;68622;53.128;17.966;2024-01-10T10:05:31;103020.73;;;0.04;69.36
76137;BME280;68622;53.128;17.966;2024-01-10T10:08:00;103023.75;;;0.08;69.26
76137;BME280;68622;53.128;17.966;2024-01-10T10:10:26;103026.65;;;0.09;69.15
76137;BME280;68622;53.128;17.966;2024-01-10T10:12:53;103026.50;;;0.06;69.11
76137;BME280;68622;53.128;17.966;2024-01-10T10:15:21;103029.73;;;0.06;69.04
76137;BME280;68622;53.128;17.966;2024-01-10T10:17:49;103028.89;;;0.05;69.16
76137;BME280;68622;53.128;17.966;2024-01-10T10:20:27;103025.77;;;0.13;68.99
76137;BME280;68622;53.128;17.966;2024-01-10T10:23:04;103025.45;;;0.11;68.87
76137;BME280;68622;53.128;17.966;2024-01-10T10:25:45;103030.73;;;0.12;68.94
76137;BME280;68622;53.128;17.966;2024-01-10T10:28:11;103033.11;;;0.11;68.92
76137;BME280;68622;53.128;17.966;2024-01-10T10:30:37;103037.95;;;0.04;68.89
76137;BME280;68622;53.128;17.966;2024-01-10T10:33:05;103041.20;;;0.03;68.89
76137;BME280;68622;53.128;17.966;2024-01-10T10:35:34;103044.48;;;-0.03;68.91
76137;BME280;68622;53.128;17.966;2024-01-10T10:38:00;103041.16;;;-0.18;69.23
76137;BME280;68622;53.128;17.966;2024-01-10T10:40:26;103043.35;;;-0.15;69.26
76137;BME280;68622;53.128;17.966;2024-01-10T10:42:56;103041.73;;;-0.26;69.43
76137;BME280;68622;53.128;17.966;2024-01-10T10:45:23;103040.88;;;-0.28;69.60
76137;BME280;68622;53.128;17.966;2024-01-10T10:47:57;103039.35;;;-0.27;69.60
76137;BME280;68622;53.128;17.966;2024-01-10T10:50:28;103041.91;;;-0.28;69.32
76137;BME280;68622;53.128;17.966;2024-01-10T10:52:55;103039.06;;;-0.36;69.33
76137;BME280;68622;53.128;17.966;2024-01-10T10:55:25;103035.31;;;-0.37;69.53
76137;BME280;68622;53.128;17.966;2024-01-10T10:57:53;103030.91;;;-0.42;69.91
76137;BME280;68622;53.128;17.966;2024-01-10T11:00:20;103032.95;;;-0.43;69.80
76137;BME280;68622;53.128;17.966;2024-01-10T11:02:53;103031.26;;;-0.44;69.98
76137;BME280;68622;53.128;17.966;2024-01-10T11:05:20;103032.32;;;-0.52;70.36
76137;BME280;68622;53.128;17.966;2024-01-10T11:07:47;103027.06;;;-0.57;70.46
76137;BME280;68622;53.128;17.966;2024-01-10T11:10:21;103028.24;;;-0.53;70.44
76137;BME280;68622;53.128;17.966;2024-01-10T11:13:24;103025.55;;;-0.60;70.28
76137;BME280;68622;53.128;17.966;2024-01-10T11:21:37;103023.35;;;-0.64;70.81
76137;BME280;68622;53.128;17.966;2024-01-10T11:24:09;103014.49;;;-0.66;70.82
76137;BME280;68622;53.128;17.966;2024-01-10T11:26:39;103005.98;;;-0.70;70.98
76137;BME280;68622;53.128;17.966;2024-01-10T11:29:05;103004.13;;;-0.72;71.03
76137;BME280;68622;53.128;17.966;2024-01-10T11:31:32;103005.30;;;-0.72;70.99
76137;BME280;68622;53.128;17.966;2024-01-10T11:34:00;103005.34;;;-0.80;71.46
76137;BME280;68622;53.128;17.966;2024-01-10T11:36:27;103010.10;;;-0.75;71.49
76137;BME280;68622;53.128;17.966;2024-01-10T11:38:54;103006.82;;;-0.66;71.17
76137;BME280;68622;53.128;17.966;2024-01-10T11:41:31;103010.25;;;-0.72;71.35
76137;BME280;68622;53.128;17.966;2024-01-10T11:46:42;103004.79;;;-0.70;70.62
76137;BME280;68622;53.128;17.966;2024-01-10T11:49:09;103001.08;;;-0.78;71.05
76137;BME280;68622;53.128;17.966;2024-01-10T11:51:36;102999.85;;;-0.69;70.99
76137;BME280;68622;53.128;17.966;2024-01-10T11:54:02;103000.40;;;-0.79;71.18
76137;BME280;68622;53.128;17.966;2024-01-10T11:56:41;102994.11;;;-0.79;70.91
76137;BME280;68622;53.128;17.966;2024-01-10T11:59:09;102987.83;;;-0.85;71.07
76137;BME280;68622;53.128;17.966;2024-01-10T12:01:38;102984.91;;;-0.81;71.05
76137;BME280;68622;53.128;17.966;2024-01-10T12:04:04;102987.98;;;-0.83;71.01
76137;BME280;68622;53.128;17.966;2024-01-10T12:06:31;102984.23;;;-0.84;71.21
76137;BME280;68622;53.128;17.966;2024-01-10T12:08:58;102986.27;;;-0.78;70.68
76137;BME280;68622;53.128;17.966;2024-01-10T12:11:25;102986.69;;;-1.00;71.20
76137;BME280;68622;53.128;17.966;2024-01-10T12:13:51;102985.08;;;-0.82;70.78
76137;BME280;68622;53.128;17.966;2024-01-10T12:16:17;102980.83;;;-0.81;70.82
76137;BME280;68622;53.128;17.966;2024-01-10T12:18:43;102982.83;;;-0.74;70.75
76137;BME280;68622;53.128;17.966;2024-01-10T12:21:10;102984.89;;;-0.78;70.33
76137;BME280;68622;53.128;17.966;2024-01-10T12:23:38;102983.88;;;-0.76;70.45
76137;BME280;68622;53.128;17.966;2024-01-10T12:26:10;102982.84;;;-0.76;70.16
76137;BME280;68622;53.128;17.966;2024-01-10T12:28:40;102982.81;;;-0.71;70.15
76137;BME280;68622;53.128;17.966;2024-01-10T12:31:08;102984.90;;;-0.80;70.18
76137;BME280;68622;53.128;17.966;2024-01-10T12:33:36;102981.50;;;-0.84;70.29
76137;BME280;68622;53.128;17.966;2024-01-10T12:36:11;102979.80;;;-0.82;69.92
76137;BME280;68622;53.128;17.966;2024-01-10T12:38:40;102985.63;;;-0.90;70.11
76137;BME280;68622;53.128;17.966;2024-01-10T12:41:06;102981.07;;;-0.99;70.53
76137;BME280;68622;53.128;17.966;2024-01-10T12:43:35;102980.05;;;-0.99;70.13
76137;BME280;68622;53.128;17.966;2024-01-10T12:46:08;102976.14;;;-1.04;70.27